sensor_id;sensor_type;location;lat;lon;timestamp;pressure;altitude;pressure_sealevel;temperature;humidity
11314;BME280;5712;48.858;9.206;2023-01-26T00:01:24;98735.16;;;1.20;100.00
11314;BME280;5712;48.858;9.206;2023-01-26T00:03:53;98737.88;;;1.16;100.00
11314;BME280;5712;48.858;9.206;2023-01-26T00:06:21;98732.72;;;1.13;100.00
11314;BME280;5712;48.858;9.206;2023-01-26T00:08:49;98734.50;;;1.11;100.00
11314;BME280;5712;48.858;9.206;2023-01-26T00:11:17;98732.59;;;1.19;100.00
11314;BME280;5712;48.858;9.206;2023-01-26T00:13:44;98721.25;;;1.21;100.00
11314;BME280;5712;48.858;9.206;2023-01-26T00:16:12;98717.06;;;1.14;100.00
11314;BME280;5712;48.858;9.206;2023-01-26T00:18:40;98713.56;;;1.15;100.00
11314;BME280;5712;48.858;9.206;2023-01-26T00:21:12;98703.16;;;1.15;100.00
11314;BME280;5712;48.858;9.206;2023-01-26T00:23:39;98705.91;;;1.09;100.00
11314;BME280;5712;48.858;9.206;2023-01-26T00:26:07;98696.31;;;1.11;100.00
11314;BME280;5712;48.858;9.206;2023-01-26T00:28:34;98699.00;;;1.08;100.00
11314;BME280;5712;48.858;9.206;2023-01-26T00:31:01;98696.41;;;1.07;100.00
11314;BME280;5712;48.858;9.206;2023-01-26T00:33:28;98691.22;;;1.07;100.00
11314;BME280;5712;48.858;9.206;2023-01-26T00:35:55;98688.63;;;1.05;100.00
11314;BME280;5712;48.858;9.206;2023-01-26T00:38:23;98685.13;;;1.06;100.00
11314;BME280;5712;48.858;9.206;2023-01-26T00:40:49;98682.63;;;1.03;100.00
11314;BME280;5712;48.858;9.206;2023-01-26T00:43:16;98682.66;;;1.00;100.00
11314;BME280;5712;48.858;9.206;2023-01-26T00:45:43;98687.00;;;1.01;100.00
11314;BME280;5712;48.858;9.206;2023-01-26T00:48:09;98679.09;;;1.06;100.00
11314;BME280;5712;48.858;9.206;2023-01-26T00:50:36;98673.16;;;0.99;100.00
11314;BME280;5712;48.858;9.206;2023-01-26T00:53:02;98671.44;;;0.98;100.00
11314;BME280;5712;48.858;9.206;2023-01-26T00:55:30;98679.22;;;1.01;100.00
11314;BME280;5712;48.858;9.206;2023-01-26T00:57:57;98667.00;;;1.03;100.00
11314;BME280;5712;48.858;9.206;2023-01-26T01:00:24;98667.81;;;1.05;100.00
11314;BME280;5712;48.858;9.206;2023-01-26T01:02:50;98668.81;;;1.00;100.00
11314;BME280;5712;48.858;9.206;2023-01-26T01:05:17;98669.59;;;1.03;100.00
11314;BME280;5712;48.858;9.206;2023-01-26T01:07:43;98669.75;;;0.97;100.00
11314;BME280;5712;48.858;9.206;2023-01-26T01:10:10;98670.63;;;0.96;100.00
11314;BME280;5712;48.858;9.206;2023-01-26T01:12:38;98670.63;;;0.98;100.00
11314;BME280;5712;48.858;9.206;2023-01-26T01:15:05;98672.31;;;0.99;100.00
11314;BME280;5712;48.858;9.206;2023-01-26T01:17:32;98675.72;;;1.02;100.00
11314;BME280;5712;48.858;9.206;2023-01-26T01:20:00;98667.16;;;0.97;100.00
11314;BME280;5712;48.858;9.206;2023-01-26T01:22:27;98673.25;;;0.96;100.00
11314;BME280;5712;48.858;9.206;2023-01-26T01:24:54;98670.63;;;0.96;100.00
11314;BME280;5712;48.858;9.206;2023-01-26T01:27:20;98668.09;;;0.93;100.00
11314;BME280;5712;48.858;9.206;2023-01-26T01:29:49;98662.97;;;0.90;100.00
11314;BME280;5712;48.858;9.206;2023-01-26T01:32:16;98663.03;;;0.87;100.00
11314;BME280;5712;48.858;9.206;2023-01-26T01:34:45;98658.59;;;0.92;100.00
11314;BME280;5712;48.858;9.206;2023-01-26T01:37:12;98662.88;;;0.93;100.00
11314;BME280;5712;48.858;9.206;2023-01-26T01:39:38;98664.78;;;0.88;100.00
11314;BME280;5712;48.858;9.206;2023-01-26T01:42:05;98655.16;;;0.90;100.00
11314;BME280;5712;48.858;9.206;2023-01-26T01:44:34;98649.72;;;1.01;100.00
11314;BME280;5712;48.858;9.206;2023-01-26T01:47:04;98639.13;;;1.08;100.00
11314;BME280;5712;48.858;9.206;2023-01-26T01:49:35;98639.47;;;0.93;100.00
11314;BME280;5712;48.858;9.206;2023-01-26T01:52:07;98645.72;;;0.85;100.00
11314;BME280;5712;48.858;9.206;2023-01-26T01:54:39;98639.72;;;0.83;100.00
11314;BME280;5712;48.858;9.206;2023-01-26T01:57:11;98647.28;;;0.93;100.00
11314;BME280;5712;48.858;9.206;2023-01-26T01:59:42;98640.59;;;0.83;100.00
11314;BME280;5712;48.858;9.206;2023-01-26T02:02:13;98645.09;;;0.75;100.00
11314;BME280;5712;48.858;9.206;2023-01-26T02:04:40;98639.84;;;0.78;100.00
11314;BME280;5712;48.858;9.206;2023-01-26T02:07:07;98635.59;;;0.74;100.00
11314;BME280;5712;48.858;9.206;2023-01-26T02:09:37;98637.28;;;0.75;100.00
11314;BME280;5712;48.858;9.206;2023-01-26T02:12:25;98633.88;;;0.73;100.00
11314;BME280;5712;48.858;9.206;2023-01-26T02:14:52;98631.09;;;0.81;100.00
11314;BME280;5712;48.858;9.206;2023-01-26T02:17:20;98633.69;;;0.82;100.00
11314;BME280;5712;48.858;9.206;2023-01-26T02:19:50;98621.41;;;0.87;100.00
11314;BME280;5712;48.858;9.206;2023-01-26T02:22:26;98623.19;;;0.85;100.00
11314;BME280;5712;48.858;9.206;2023-01-26T02:25:03;98625.19;;;0.74;100.00
11314;BME280;5712;48.858;9.206;2023-01-26T02:27:33;98627.81;;;0.73;100.00
11314;BME280;5712;48.858;9.206;2023-01-26T02:30:01;98623.56;;;0.70;100.00
11314;BME280;5712;48.858;9.206;2023-01-26T02:32:29;98627.75;;;0.76;100.00
11314;BME280;5712;48.858;9.206;2023-01-26T02:34:55;98626.09;;;0.72;100.00
11314;BME280;5712;48.858;9.206;2023-01-26T02:37:23;98626.88;;;0.75;100.00
11314;BME280;5712;48.858;9.206;2023-01-26T02:39:54;98624.19;;;0.80;100.00
11314;BME280;5712;48.858;9.206;2023-01-26T02:42:22;98607.81;;;0.76;100.00
11314;BME280;5712;48.858;9.206;2023-01-26T02:45:09;98616.53;;;0.74;100.00
11314;BME280;5712;48.858;9.206;2023-01-26T02:47:36;98610.56;;;0.69;100.00
11314;BME280;5712;48.858;9.206;2023-01-26T02:50:02;98609.78;;;0.65;100.00
11314;BME280;5712;48.858;9.206;2023-01-26T02:52:29;98603.03;;;0.58;100.00
11314;BME280;5712;48.858;9.206;2023-01-26T02:54:56;98604.78;;;0.56;100.00
11314;BME280;5712;48.858;9.206;2023-01-26T02:57:40;98608.28;;;0.55;100.00
11314;BME280;5712;48.858;9.206;2023-01-26T03:00:11;98602.31;;;0.50;100.00
11314;BME280;5712;48.858;9.206;2023-01-26T03:02:38;98601.56;;;0.45;100.00
11314;BME280;5712;48.858;9.206;2023-01-26T03:05:06;98601.50;;;0.48;100.00
11314;BME280;5712;48.858;9.206;2023-01-26T03:07:33;98600.50;;;0.54;100.00
11314;BME280;5712;48.858;9.206;2023-01-26T03:09:59;98603.28;;;0.46;100.00
11314;BME280;5712;48.858;9.206;2023-01-26T03:12:26;98601.47;;;0.50;100.00
11314;BME280;5712;48.858;9.206;2023-01-26T03:14:52;98591.88;;;0.52;100.00
11314;BME280;5712;48.858;9.206;2023-01-26T03:17:34;98591.78;;;0.56;100.00
11314;BME280;5712;48.858;9.206;2023-01-26T03:20:01;98584.06;;;0.53;100.00
11314;BME280;5712;48.858;9.206;2023-01-26T03:22:45;98586.44;;;0.62;100.00
11314;BME280;5712;48.858;9.206;2023-01-26T03:25:35;98582.28;;;0.54;100.00
11314;BME280;5712;48.858;9.206;2023-01-26T03:28:15;98577.28;;;0.46;100.00
11314;BME280;5712;48.858;9.206;2023-01-26T03:30:46;98577.22;;;0.49;100.00
11314;BME280;5712;48.858;9.206;2023-01-26T03:33:14;98575.41;;;0.51;100.00
11314;BME280;5712;48.858;9.206;2023-01-26T03:35:41;98573.72;;;0.50;100.00
11314;BME280;5712;48.858;9.206;2023-01-26T03:38:07;98564.22;;;0.49;100.00
11314;BME280;5712;48.858;9.206;2023-01-26T03:40:34;98561.56;;;0.52;100.00
11314;BME280;5712;48.858;9.206;2023-01-26T03:43:18;98559.81;;;0.51;100.00
11314;BME280;5712;48.858;9.206;2023-01-26T03:46:02;98558.19;;;0.47;100.00
11314;BME280;5712;48.858;9.206;2023-01-26T03:48:48;98565.06;;;0.50;100.00
11314;BME280;5712;48.858;9.206;2023-01-26T03:51:32;98559.94;;;0.45;100.00
11314;BME280;5712;48.858;9.206;2023-01-26T03:54:15;98563.41;;;0.47;100.00
11314;BME280;5712;48.858;9.206;2023-01-26T03:56:59;98561.59;;;0.49;100.00
11314;BME280;5712;48.858;9.206;2023-01-26T03:59:26;98572.00;;;0.49;100.00
11314;BME280;5712;48.858;9.206;2023-01-26T04:02:03;98567.03;;;0.40;100.00
11314;BME280;5712;48.858;9.206;2023-01-26T04:04:49;98570.34;;;0.45;100.00
11314;BME280;5712;48.858;9.206;2023-01-26T04:07:33;98573.84;;;0.44;100.00
11314;BME280;5712;48.858;9.206;2023-01-26T04:10:17;98567.94;;;0.38;100.00
11314;BME280;5712;48.858;9.206;2023-01-26T04:12:44;98570.50;;;0.39;100.00
11314;BME280;5712;48.858;9.206;2023-01-26T04:15:24;98573.22;;;0.33;100.00
11314;BME280;5712;48.858;9.206;2023-01-26T04:18:08;98573.97;;;0.38;100.00
11314;BME280;5712;48.858;9.206;2023-01-26T04:20:53;98568.03;;;0.33;100.00
11314;BME280;5712;48.858;9.206;2023-01-26T04:23:37;98573.97;;;0.38;100.00
11314;BME280;5712;48.858;9.206;2023-01-26T04:26:03;98580.84;;;0.42;100.00
11314;BME280;5712;48.858;9.206;2023-01-26T04:28:30;98578.38;;;0.36;100.00
11314;BME280;5712;48.858;9.206;2023-01-26T04:30:56;98570.84;;;0.24;100.00
11314;BME280;5712;48.858;9.206;2023-01-26T04:33:23;98570.03;;;0.22;100.00
11314;BME280;5712;48.858;9.206;2023-01-26T04:35:49;98569.03;;;0.28;100.00
11314;BME280;5712;48.858;9.206;2023-01-26T04:38:17;98558.59;;;0.29;100.00
11314;BME280;5712;48.858;9.206;2023-01-26T04:40:43;98560.31;;;0.30;100.00
11314;BME280;5712;48.858;9.206;2023-01-26T04:43:10;98561.31;;;0.25;100.00
11314;BME280;5712;48.858;9.206;2023-01-26T04:45:36;98563.84;;;0.26;100.00
11314;BME280;5712;48.858;9.206;2023-01-26T04:48:03;98560.31;;;0.30;100.00
11314;BME280;5712;48.858;9.206;2023-01-26T04:50:30;98557.81;;;0.26;100.00
11314;BME280;5712;48.858;9.206;2023-01-26T04:52:56;98556.91;;;0.28;100.00
11314;BME280;5712;48.858;9.206;2023-01-26T04:55:24;98550.81;;;0.29;100.00
11314;BME280;5712;48.858;9.206;2023-01-26T04:57:51;98549.25;;;0.21;100.00
11314;BME280;5712;48.858;9.206;2023-01-26T05:00:18;98550.13;;;0.21;100.00
11314;BME280;5712;48.858;9.206;2023-01-26T05:02:44;98545.78;;;0.20;100.00
11314;BME280;5712;48.858;9.206;2023-01-26T05:05:11;98545.06;;;0.15;100.00
11314;BME280;5712;48.858;9.206;2023-01-26T05:07:37;98548.38;;;0.20;100.00
11314;BME280;5712;48.858;9.206;2023-01-26T05:10:04;98547.53;;;0.21;100.00
11314;BME280;5712;48.858;9.206;2023-01-26T05:12:32;98539.78;;;0.18;100.00
11314;BME280;5712;48.858;9.206;2023-01-26T05:14:59;98554.63;;;0.13;100.00
11314;BME280;5712;48.858;9.206;2023-01-26T05:17:25;98544.34;;;0.07;100.00
11314;BME280;5712;48.858;9.206;2023-01-26T05:19:52;98543.31;;;0.14;100.00
11314;BME280;5712;48.858;9.206;2023-01-26T05:22:18;98551.97;;;0.16;100.00
11314;BME280;5712;48.858;9.206;2023-01-26T05:24:45;98546.66;;;0.21;100.00
11314;BME280;5712;48.858;9.206;2023-01-26T05:27:11;98557.97;;;0.18;100.00
11314;BME280;5712;48.858;9.206;2023-01-26T05:29:49;98551.97;;;0.16;100.00
11314;BME280;5712;48.858;9.206;2023-01-26T05:32:15;98556.31;;;0.14;100.00
11314;BME280;5712;48.858;9.206;2023-01-26T05:34:42;98555.38;;;0.18;100.00
11314;BME280;5712;48.858;9.206;2023-01-26T05:37:08;98545.84;;;0.19;100.00
11314;BME280;5712;48.858;9.206;2023-01-26T05:39:35;98555.38;;;0.18;100.00
11314;BME280;5712;48.858;9.206;2023-01-26T05:42:02;98554.63;;;0.12;100.00
11314;BME280;5712;48.858;9.206;2023-01-26T05:44:28;98559.97;;;0.06;100.00
11314;BME280;5712;48.858;9.206;2023-01-26T05:46:56;98562.53;;;0.07;100.00
11314;BME280;5712;48.858;9.206;2023-01-26T05:49:22;98552.09;;;0.10;100.00
11314;BME280;5712;48.858;9.206;2023-01-26T05:51:49;98560.84;;;0.06;100.00
11314;BME280;5712;48.858;9.206;2023-01-26T05:54:15;98559.13;;;0.05;100.00
11314;BME280;5712;48.858;9.206;2023-01-26T05:56:42;98560.06;;;0.01;100.00
11314;BME280;5712;48.858;9.206;2023-01-26T05:59:09;98561.06;;;-0.04;100.00
11314;BME280;5712;48.858;9.206;2023-01-26T06:01:35;98563.78;;;-0.10;100.00
11314;BME280;5712;48.858;9.206;2023-01-26T06:04:03;98562.88;;;-0.08;100.00
11314;BME280;5712;48.858;9.206;2023-01-26T06:06:30;98561.09;;;-0.06;100.00
11314;BME280;5712;48.858;9.206;2023-01-26T06:08:57;98568.06;;;-0.08;100.00
11314;BME280;5712;48.858;9.206;2023-01-26T06:11:24;98559.31;;;-0.04;100.00
11314;BME280;5712;48.858;9.206;2023-01-26T06:13:50;98555.06;;;-0.06;100.00
11314;BME280;5712;48.858;9.206;2023-01-26T06:16:17;98556.03;;;-0.12;100.00
11314;BME280;5712;48.858;9.206;2023-01-26T06:18:46;98561.22;;;-0.12;100.00
11314;BME280;5712;48.858;9.206;2023-01-26T06:21:14;98565.63;;;-0.17;100.00
11314;BME280;5712;48.858;9.206;2023-01-26T06:23:41;98570.00;;;-0.17;100.00
11314;BME280;5712;48.858;9.206;2023-01-26T06:26:07;98569.09;;;-0.16;100.00
11314;BME280;5712;48.858;9.206;2023-01-26T06:28:34;98568.19;;;-0.13;100.00
11314;BME280;5712;48.858;9.206;2023-01-26T06:31:01;98569.81;;;-0.10;100.00
11314;BME280;5712;48.858;9.206;2023-01-26T06:33:28;98581.94;;;-0.08;100.00
11314;BME280;5712;48.858;9.206;2023-01-26T06:35:55;98574.06;;;-0.06;100.00
11314;BME280;5712;48.858;9.206;2023-01-26T06:38:23;98568.06;;;-0.08;100.00
11314;BME280;5712;48.858;9.206;2023-01-26T06:40:49;98576.56;;;0.00;100.00
11314;BME280;5712;48.858;9.206;2023-01-26T06:43:16;98572.28;;;-0.02;100.00
11314;BME280;5712;48.858;9.206;2023-01-26T06:45:43;98565.50;;;-0.09;100.00
11314;BME280;5712;48.858;9.206;2023-01-26T06:48:11;98567.19;;;-0.08;100.00
11314;BME280;5712;48.858;9.206;2023-01-26T06:50:38;98571.44;;;-0.03;100.00
11314;BME280;5712;48.858;9.206;2023-01-26T06:53:25;98572.28;;;-0.02;100.00
11314;BME280;5712;48.858;9.206;2023-01-26T06:55:54;98573.03;;;0.03;100.00
11314;BME280;5712;48.858;9.206;2023-01-26T06:58:20;98569.66;;;-0.01;100.00
11314;BME280;5712;48.858;9.206;2023-01-26T07:00:47;98573.19;;;-0.05;100.00
11314;BME280;5712;48.858;9.206;2023-01-26T07:03:13;98570.66;;;-0.06;100.00
11314;BME280;5712;48.858;9.206;2023-01-26T07:05:40;98573.97;;;-0.01;100.00
11314;BME280;5712;48.858;9.206;2023-01-26T07:08:06;98569.69;;;-0.04;100.00
11314;BME280;5712;48.858;9.206;2023-01-26T07:10:34;98568.97;;;-0.10;100.00
11314;BME280;5712;48.858;9.206;2023-01-26T07:13:02;98569.03;;;-0.13;100.00
11314;BME280;5712;48.858;9.206;2023-01-26T07:15:29;98576.00;;;-0.15;100.00
11314;BME280;5712;48.858;9.206;2023-01-26T07:17:56;98581.16;;;-0.12;100.00
11314;BME280;5712;48.858;9.206;2023-01-26T07:20:22;98584.56;;;-0.10;100.00
11314;BME280;5712;48.858;9.206;2023-01-26T07:22:50;98584.59;;;-0.12;100.00
11314;BME280;5712;48.858;9.206;2023-01-26T07:25:17;98584.72;;;-0.17;100.00
11314;BME280;5712;48.858;9.206;2023-01-26T07:27:45;98586.41;;;-0.15;100.00
11314;BME280;5712;48.858;9.206;2023-01-26T07:30:12;98594.22;;;-0.17;100.00
11314;BME280;5712;48.858;9.206;2023-01-26T07:32:39;98589.13;;;-0.21;100.00
11314;BME280;5712;48.858;9.206;2023-01-26T07:35:07;98583.00;;;-0.17;100.00
11314;BME280;5712;48.858;9.206;2023-01-26T07:37:33;98590.91;;;-0.23;100.00
11314;BME280;5712;48.858;9.206;2023-01-26T07:40:00;98588.38;;;-0.28;100.00
11314;BME280;5712;48.858;9.206;2023-01-26T07:42:27;98584.91;;;-0.26;100.00
11314;BME280;5712;48.858;9.206;2023-01-26T07:44:56;98581.44;;;-0.27;100.00
11314;BME280;5712;48.858;9.206;2023-01-26T07:47:24;98575.22;;;-0.18;100.00
11314;BME280;5712;48.858;9.206;2023-01-26T07:49:50;98581.22;;;-0.17;100.00
11314;BME280;5712;48.858;9.206;2023-01-26T07:52:17;98599.41;;;-0.17;100.00
11314;BME280;5712;48.858;9.206;2023-01-26T07:54:43;98581.22;;;-0.17;100.00
11314;BME280;5712;48.858;9.206;2023-01-26T07:57:11;98582.13;;;-0.17;100.00
11314;BME280;5712;48.858;9.206;2023-01-26T07:59:37;98580.47;;;-0.22;100.00
11314;BME280;5712;48.858;9.206;2023-01-26T08:02:07;98582.19;;;-0.20;100.00
11314;BME280;5712;48.858;9.206;2023-01-26T08:04:34;98577.97;;;-0.26;100.00
11314;BME280;5712;48.858;9.206;2023-01-26T08:07:01;98580.53;;;-0.24;100.00
11314;BME280;5712;48.858;9.206;2023-01-26T08:09:27;98589.09;;;-0.19;100.00
11314;BME280;5712;48.858;9.206;2023-01-26T08:11:55;98588.91;;;-0.11;100.00
11314;BME280;5712;48.858;9.206;2023-01-26T08:14:21;98587.19;;;-0.12;100.00
11314;BME280;5712;48.858;9.206;2023-01-26T08:16:48;98584.59;;;-0.12;100.00
11314;BME280;5712;48.858;9.206;2023-01-26T08:19:16;98585.53;;;-0.16;100.00
11314;BME280;5712;48.858;9.206;2023-01-26T08:21:43;98586.38;;;-0.13;100.00
11314;BME280;5712;48.858;9.206;2023-01-26T08:24:10;98586.50;;;-0.19;100.00
11314;BME280;5712;48.858;9.206;2023-01-26T08:26:36;98583.94;;;-0.22;100.00
11314;BME280;5712;48.858;9.206;2023-01-26T08:29:03;98577.91;;;-0.23;100.00
11314;BME280;5712;48.858;9.206;2023-01-26T08:31:29;98583.00;;;-0.18;100.00
11314;BME280;5712;48.858;9.206;2023-01-26T08:33:57;98584.78;;;-0.20;100.00
11314;BME280;5712;48.858;9.206;2023-01-26T08:36:26;98571.69;;;-0.14;100.00
11314;BME280;5712;48.858;9.206;2023-01-26T08:38:53;98568.97;;;-0.10;100.00
11314;BME280;5712;48.858;9.206;2023-01-26T08:41:19;98570.72;;;-0.11;100.00
11314;BME280;5712;48.858;9.206;2023-01-26T08:43:46;98571.47;;;-0.06;100.00
11314;BME280;5712;48.858;9.206;2023-01-26T08:46:13;98570.66;;;-0.08;100.00
11314;BME280;5712;48.858;9.206;2023-01-26T08:48:39;98566.03;;;0.06;100.00
11314;BME280;5712;48.858;9.206;2023-01-26T08:51:06;98576.31;;;0.11;100.00
11314;BME280;5712;48.858;9.206;2023-01-26T08:53:36;98566.00;;;0.08;100.00
11314;BME280;5712;48.858;9.206;2023-01-26T08:56:04;98568.72;;;0.03;100.00
11314;BME280;5712;48.858;9.206;2023-01-26T08:58:31;98569.66;;;-0.01;100.00
11314;BME280;5712;48.858;9.206;2023-01-26T09:00:58;98569.69;;;-0.04;100.00
11314;BME280;5712;48.858;9.206;2023-01-26T09:03:24;98568.00;;;-0.05;100.00
11314;BME280;5712;48.858;9.206;2023-01-26T09:05:51;98567.06;;;-0.02;100.00
11314;BME280;5712;48.858;9.206;2023-01-26T09:08:17;98559.19;;;0.02;100.00
11314;BME280;5712;48.858;9.206;2023-01-26T09:10:45;98560.78;;;0.09;100.00
11314;BME280;5712;48.858;9.206;2023-01-26T09:13:11;98557.22;;;0.13;100.00
11314;BME280;5712;48.858;9.206;2023-01-26T09:15:38;98559.81;;;0.13;100.00
11314;BME280;5712;48.858;9.206;2023-01-26T09:18:04;98553.66;;;0.17;100.00
11314;BME280;5712;48.858;9.206;2023-01-26T09:20:31;98555.97;;;0.31;100.00
11314;BME280;5712;48.858;9.206;2023-01-26T09:22:57;98561.31;;;0.25;100.00
11314;BME280;5712;48.858;9.206;2023-01-26T09:25:24;98559.53;;;0.27;100.00
11314;BME280;5712;48.858;9.206;2023-01-26T09:27:52;98563.84;;;0.26;100.00
11314;BME280;5712;48.858;9.206;2023-01-26T09:30:18;98565.50;;;0.30;100.00
11314;BME280;5712;48.858;9.206;2023-01-26T09:32:45;98556.97;;;0.24;100.00
11314;BME280;5712;48.858;9.206;2023-01-26T09:35:11;98564.84;;;0.22;100.00
11314;BME280;5712;48.858;9.206;2023-01-26T09:37:38;98569.13;;;0.23;100.00
11314;BME280;5712;48.858;9.206;2023-01-26T09:40:05;98565.72;;;0.21;100.00
11314;BME280;5712;48.858;9.206;2023-01-26T09:42:48;98572.69;;;0.19;100.00
11314;BME280;5712;48.858;9.206;2023-01-26T09:45:28;98576.13;;;0.21;100.00
11314;BME280;5712;48.858;9.206;2023-01-26T09:48:18;98559.69;;;0.19;100.00
11314;BME280;5712;48.858;9.206;2023-01-26T09:50:49;98570.22;;;0.13;100.00
11314;BME280;5712;48.858;9.206;2023-01-26T09:53:21;98559.69;;;0.19;100.00
11314;BME280;5712;48.858;9.206;2023-01-26T09:55:50;98559.84;;;0.12;100.00
11314;BME280;5712;48.858;9.206;2023-01-26T09:58:27;98560.72;;;0.12;100.00
11314;BME280;5712;48.858;9.206;2023-01-26T10:01:00;98557.22;;;0.13;100.00
11314;BME280;5712;48.858;9.206;2023-01-26T10:03:31;98565.84;;;0.15;100.00
11314;BME280;5712;48.858;9.206;2023-01-26T10:06:02;98565.63;;;0.24;100.00
11314;BME280;5712;48.858;9.206;2023-01-26T10:08:33;98566.50;;;0.25;100.00
11314;BME280;5712;48.858;9.206;2023-01-26T10:11:02;98567.56;;;0.16;100.00
11314;BME280;5712;48.858;9.206;2023-01-26T10:13:30;98562.41;;;0.13;100.00
11314;BME280;5712;48.858;9.206;2023-01-26T10:16:00;98562.19;;;0.24;100.00
11314;BME280;5712;48.858;9.206;2023-01-26T10:18:33;98561.44;;;0.19;100.00
11314;BME280;5712;48.858;9.206;2023-01-26T10:21:03;98547.56;;;0.20;100.00
11314;BME280;5712;48.858;9.206;2023-01-26T10:23:33;98549.41;;;0.15;100.00
11314;BME280;5712;48.858;9.206;2023-01-26T10:26:12;98554.72;;;0.09;100.00
11314;BME280;5712;48.858;9.206;2023-01-26T10:28:41;98558.06;;;0.15;100.00
11314;BME280;5712;48.858;9.206;2023-01-26T10:31:13;98551.97;;;0.16;100.00
11314;BME280;5712;48.858;9.206;2023-01-26T10:33:42;98551.88;;;0.19;100.00
11314;BME280;5712;48.858;9.206;2023-01-26T10:36:11;98559.00;;;0.11;100.00
11314;BME280;5712;48.858;9.206;2023-01-26T10:38:40;98551.97;;;0.16;100.00
11314;BME280;5712;48.858;9.206;2023-01-26T10:41:21;98560.41;;;0.27;100.00
11314;BME280;5712;48.858;9.206;2023-01-26T10:43:53;98550.03;;;0.24;100.00
11314;BME280;5712;48.858;9.206;2023-01-26T10:46:32;98546.50;;;0.28;100.00
11314;BME280;5712;48.858;9.206;2023-01-26T10:49:01;98546.50;;;0.28;100.00
11314;BME280;5712;48.858;9.206;2023-01-26T10:51:30;98536.88;;;0.32;100.00
11314;BME280;5712;48.858;9.206;2023-01-26T10:54:22;98543.13;;;0.23;100.00
11314;BME280;5712;48.858;9.206;2023-01-26T10:56:51;98538.72;;;0.27;100.00
11314;BME280;5712;48.858;9.206;2023-01-26T10:59:26;98541.31;;;0.27;100.00
11314;BME280;5712;48.858;9.206;2023-01-26T11:02:00;98542.09;;;0.32;100.00
11314;BME280;5712;48.858;9.206;2023-01-26T11:04:27;98534.31;;;0.30;100.00
11314;BME280;5712;48.858;9.206;2023-01-26T11:06:54;98536.09;;;0.28;100.00
11314;BME280;5712;48.858;9.206;2023-01-26T11:09:25;98533.59;;;0.24;100.00
11314;BME280;5712;48.858;9.206;2023-01-26T11:12:00;98531.09;;;0.19;100.00
11314;BME280;5712;48.858;9.206;2023-01-26T11:14:28;98534.53;;;0.21;100.00
11314;BME280;5712;48.858;9.206;2023-01-26T11:17:11;98528.47;;;0.21;100.00
11314;BME280;5712;48.858;9.206;2023-01-26T11:19:54;98529.38;;;0.18;100.00
11314;BME280;5712;48.858;9.206;2023-01-26T11:22:30;98531.09;;;0.19;100.00
11314;BME280;5712;48.858;9.206;2023-01-26T11:25:07;98530.94;;;0.27;100.00
11314;BME280;5712;48.858;9.206;2023-01-26T11:27:44;98525.63;;;0.31;100.00
11314;BME280;5712;48.858;9.206;2023-01-26T11:30:24;98528.25;;;0.30;100.00
11314;BME280;5712;48.858;9.206;2023-01-26T11:33:00;98514.66;;;0.19;100.00
11314;BME280;5712;48.858;9.206;2023-01-26T11:35:31;98518.94;;;0.21;100.00
11314;BME280;5712;48.858;9.206;2023-01-26T11:38:17;98511.94;;;0.23;100.00
11314;BME280;5712;48.858;9.206;2023-01-26T11:40:57;98516.00;;;0.35;100.00
11314;BME280;5712;48.858;9.206;2023-01-26T11:43:47;98509.97;;;0.34;100.00
11314;BME280;5712;48.858;9.206;2023-01-26T11:46:34;98502.19;;;0.33;100.00
11314;BME280;5712;48.858;9.206;2023-01-26T11:49:19;98502.16;;;0.34;100.00
11314;BME280;5712;48.858;9.206;2023-01-26T11:51:57;98498.06;;;0.24;100.00
11314;BME280;5712;48.858;9.206;2023-01-26T11:54:54;98499.06;;;0.19;100.00
11314;BME280;5712;48.858;9.206;2023-01-26T11:57:27;98505.19;;;0.16;100.00
11314;BME280;5712;48.858;9.206;2023-01-26T12:00:00;98498.81;;;0.29;100.00
11314;BME280;5712;48.858;9.206;2023-01-26T12:02:31;98489.47;;;0.22;100.00
11314;BME280;5712;48.858;9.206;2023-01-26T12:05:09;98480.81;;;0.20;100.00
11314;BME280;5712;48.858;9.206;2023-01-26T12:07:44;98482.75;;;0.12;100.00
11314;BME280;5712;48.858;9.206;2023-01-26T12:10:21;98483.75;;;0.07;100.00
11314;BME280;5712;48.858;9.206;2023-01-26T12:12:54;98479.47;;;0.04;100.00
11314;BME280;5712;48.858;9.206;2023-01-26T12:15:26;98481.09;;;0.08;100.00
11314;BME280;5712;48.858;9.206;2023-01-26T12:17:58;98481.09;;;0.08;100.00
11314;BME280;5712;48.858;9.206;2023-01-26T12:20:31;98475.81;;;0.13;100.00
11314;BME280;5712;48.858;9.206;2023-01-26T12:23:03;98489.72;;;0.10;100.00
11314;BME280;5712;48.858;9.206;2023-01-26T12:25:33;98488.16;;;0.03;100.00
11314;BME280;5712;48.858;9.206;2023-01-26T12:28:07;98481.31;;;-0.01;100.00
11314;BME280;5712;48.858;9.206;2023-01-26T12:30:42;98478.97;;;-0.11;100.00
11314;BME280;5712;48.858;9.206;2023-01-26T12:33:12;98475.38;;;-0.07;100.00
11314;BME280;5712;48.858;9.206;2023-01-26T12:35:56;98472.91;;;-0.12;100.00
11314;BME280;5712;48.858;9.206;2023-01-26T12:38:39;98473.06;;;-0.19;100.00
11314;BME280;5712;48.858;9.206;2023-01-26T12:41:13;98463.41;;;-0.14;100.00
11314;BME280;5712;48.858;9.206;2023-01-26T12:43:52;98475.56;;;-0.14;100.00
11314;BME280;5712;48.858;9.206;2023-01-26T12:46:23;98468.69;;;-0.17;100.00
11314;BME280;5712;48.858;9.206;2023-01-26T12:48:56;98464.22;;;-0.11;100.00
11314;BME280;5712;48.858;9.206;2023-01-26T12:51:29;98464.03;;;-0.02;100.00
11314;BME280;5712;48.858;9.206;2023-01-26T12:54:02;98454.16;;;0.12;100.00
11314;BME280;5712;48.858;9.206;2023-01-26T12:56:32;98452.19;;;0.23;100.00
11314;BME280;5712;48.858;9.206;2023-01-26T12:59:07;98446.38;;;0.12;100.00
11314;BME280;5712;48.858;9.206;2023-01-26T13:01:40;98454.81;;;0.20;100.00
11314;BME280;5712;48.858;9.206;2023-01-26T13:04:08;98450.63;;;0.16;100.00
11314;BME280;5712;48.858;9.206;2023-01-26T13:06:37;98441.03;;;0.18;100.00
11314;BME280;5712;48.858;9.206;2023-01-26T13:09:18;98435.94;;;0.14;100.00
11314;BME280;5712;48.858;9.206;2023-01-26T13:11:50;98441.25;;;0.09;100.00
11314;BME280;5712;48.858;9.206;2023-01-26T13:14:37;98441.16;;;0.12;100.00
11314;BME280;5712;48.858;9.206;2023-01-26T13:20:21;98434.19;;;0.14;100.00
11314;BME280;5712;48.858;9.206;2023-01-26T13:22:50;98432.28;;;0.22;100.00
11314;BME280;5712;48.858;9.206;2023-01-26T13:25:18;98427.28;;;0.13;100.00
11314;BME280;5712;48.858;9.206;2023-01-26T13:27:53;98428.84;;;0.20;100.00